sensor_id;sensor_type;location;lat;lon;timestamp;P1;durP1;ratioP1;P2;durP2;ratioP2
5931;SDS011;2991;49.368;8.528;2022-09-03T00:02:42;0.83;;;0.83;;
5931;SDS011;2991;49.368;8.528;2022-09-03T00:05:15;0.90;;;0.90;;
5931;SDS011;2991;49.368;8.528;2022-09-03T00:07:51;1.20;;;1.10;;
5931;SDS011;2991;49.368;8.528;2022-09-03T00:10:32;1.30;;;1.20;;
5931;SDS011;2991;49.368;8.528;2022-09-03T00:13:07;1.10;;;1.00;;
5931;SDS011;2991;49.368;8.528;2022-09-03T00:15:34;1.20;;;1.20;;
5931;SDS011;2991;49.368;8.528;2022-09-03T00:18:03;1.00;;;0.97;;
5931;SDS011;2991;49.368;8.528;2022-09-03T00:20:40;0.90;;;0.90;;
5931;SDS011;2991;49.368;8.528;2022-09-03T00:23:24;2.90;;;1.10;;
5931;SDS011;2991;49.368;8.528;2022-09-03T00:31:40;0.90;;;0.90;;
5931;SDS011;2991;49.368;8.528;2022-09-03T00:34:23;1.00;;;1.00;;
5931;SDS011;2991;49.368;8.528;2022-09-03T00:36:55;0.97;;;0.97;;
5931;SDS011;2991;49.368;8.528;2022-09-03T00:39:22;2.50;;;1.20;;
5931;SDS011;2991;49.368;8.528;2022-09-03T00:45:02;1.10;;;1.00;;
5931;SDS011;2991;49.368;8.528;2022-09-03T00:50:25;0.90;;;0.90;;
5931;SDS011;2991;49.368;8.528;2022-09-03T01:04:24;0.80;;;0.80;;
5931;SDS011;2991;49.368;8.528;2022-09-03T01:07:02;0.80;;;0.80;;
5931;SDS011;2991;49.368;8.528;2022-09-03T01:09:45;0.97;;;0.97;;
5931;SDS011;2991;49.368;8.528;2022-09-03T01:15:16;1.00;;;1.00;;
5931;SDS011;2991;49.368;8.528;2022-09-03T01:20:54;1.00;;;1.00;;
5931;SDS011;2991;49.368;8.528;2022-09-03T01:26:07;1.10;;;1.10;;
5931;SDS011;2991;49.368;8.528;2022-09-03T01:28:56;1.20;;;1.10;;
5931;SDS011;2991;49.368;8.528;2022-09-03T01:31:46;0.90;;;0.90;;
5931;SDS011;2991;49.368;8.528;2022-09-03T01:34:26;1.23;;;0.80;;
5931;SDS011;2991;49.368;8.528;2022-09-03T01:37:27;1.27;;;1.17;;
5931;SDS011;2991;49.368;8.528;2022-09-03T01:43:02;1.47;;;0.93;;
5931;SDS011;2991;49.368;8.528;2022-09-03T01:45:53;0.90;;;0.90;;
5931;SDS011;2991;49.368;8.528;2022-09-03T01:56:39;0.90;;;0.90;;
5931;SDS011;2991;49.368;8.528;2022-09-03T01:59:41;1.10;;;1.10;;
5931;SDS011;2991;49.368;8.528;2022-09-03T02:02:17;1.13;;;0.93;;
5931;SDS011;2991;49.368;8.528;2022-09-03T02:04:56;1.40;;;1.10;;
5931;SDS011;2991;49.368;8.528;2022-09-03T02:07:36;1.20;;;1.13;;
5931;SDS011;2991;49.368;8.528;2022-09-03T02:10:06;1.03;;;1.00;;
5931;SDS011;2991;49.368;8.528;2022-09-03T02:12:37;1.33;;;1.10;;
5931;SDS011;2991;49.368;8.528;2022-09-03T02:15:06;3.53;;;1.20;;
5931;SDS011;2991;49.368;8.528;2022-09-03T02:17:37;1.13;;;1.00;;
5931;SDS011;2991;49.368;8.528;2022-09-03T02:20:06;1.07;;;1.07;;
5931;SDS011;2991;49.368;8.528;2022-09-03T02:22:36;1.00;;;0.90;;
5931;SDS011;2991;49.368;8.528;2022-09-03T02:25:03;0.90;;;0.90;;
5931;SDS011;2991;49.368;8.528;2022-09-03T02:27:30;1.00;;;1.00;;
5931;SDS011;2991;49.368;8.528;2022-09-03T02:29:55;1.50;;;1.10;;
5931;SDS011;2991;49.368;8.528;2022-09-03T02:32:22;0.97;;;0.97;;
5931;SDS011;2991;49.368;8.528;2022-09-03T02:34:48;1.57;;;0.90;;
5931;SDS011;2991;49.368;8.528;2022-09-03T02:37:14;0.87;;;0.87;;
5931;SDS011;2991;49.368;8.528;2022-09-03T02:39:41;0.70;;;0.70;;
5931;SDS011;2991;49.368;8.528;2022-09-03T02:42:06;1.20;;;1.00;;
5931;SDS011;2991;49.368;8.528;2022-09-03T02:44:35;0.83;;;0.83;;
5931;SDS011;2991;49.368;8.528;2022-09-03T02:47:06;1.23;;;0.87;;
5931;SDS011;2991;49.368;8.528;2022-09-03T02:49:32;0.90;;;0.90;;
5931;SDS011;2991;49.368;8.528;2022-09-03T02:51:59;0.90;;;0.90;;
5931;SDS011;2991;49.368;8.528;2022-09-03T02:54:31;1.10;;;1.10;;
5931;SDS011;2991;49.368;8.528;2022-09-03T02:57:00;1.47;;;1.00;;
5931;SDS011;2991;49.368;8.528;2022-09-03T02:59:27;1.10;;;1.00;;
5931;SDS011;2991;49.368;8.528;2022-09-03T03:01:53;0.90;;;0.90;;
5931;SDS011;2991;49.368;8.528;2022-09-03T03:04:19;1.07;;;1.07;;
5931;SDS011;2991;49.368;8.528;2022-09-03T03:06:45;1.03;;;0.90;;
5931;SDS011;2991;49.368;8.528;2022-09-03T03:09:11;0.90;;;0.90;;
5931;SDS011;2991;49.368;8.528;2022-09-03T03:11:39;1.00;;;0.80;;
5931;SDS011;2991;49.368;8.528;2022-09-03T03:14:08;1.10;;;1.10;;
5931;SDS011;2991;49.368;8.528;2022-09-03T03:16:33;1.07;;;0.97;;
5931;SDS011;2991;49.368;8.528;2022-09-03T03:18:59;1.23;;;1.00;;
5931;SDS011;2991;49.368;8.528;2022-09-03T03:21:25;0.80;;;0.80;;
5931;SDS011;2991;49.368;8.528;2022-09-03T03:23:51;1.80;;;1.17;;
5931;SDS011;2991;49.368;8.528;2022-09-03T03:26:17;1.10;;;1.10;;
5931;SDS011;2991;49.368;8.528;2022-09-03T03:28:44;0.90;;;0.90;;
5931;SDS011;2991;49.368;8.528;2022-09-03T03:31:18;1.07;;;1.00;;
5931;SDS011;2991;49.368;8.528;2022-09-03T03:36:17;0.90;;;0.90;;
5931;SDS011;2991;49.368;8.528;2022-09-03T03:38:44;0.90;;;0.90;;
5931;SDS011;2991;49.368;8.528;2022-09-03T03:41:14;0.90;;;0.90;;
5931;SDS011;2991;49.368;8.528;2022-09-03T03:43:41;2.93;;;1.20;;
5931;SDS011;2991;49.368;8.528;2022-09-03T03:46:07;1.13;;;0.90;;
5931;SDS011;2991;49.368;8.528;2022-09-03T03:48:34;0.73;;;0.73;;
5931;SDS011;2991;49.368;8.528;2022-09-03T03:51:00;2.20;;;0.80;;
5931;SDS011;2991;49.368;8.528;2022-09-03T03:53:28;1.07;;;1.07;;
5931;SDS011;2991;49.368;8.528;2022-09-03T03:55:58;0.87;;;0.80;;
5931;SDS011;2991;49.368;8.528;2022-09-03T03:58:25;0.80;;;0.80;;
5931;SDS011;2991;49.368;8.528;2022-09-03T04:00:52;1.63;;;0.80;;
5931;SDS011;2991;49.368;8.528;2022-09-03T04:03:18;0.90;;;0.90;;
5931;SDS011;2991;49.368;8.528;2022-09-03T04:05:54;0.83;;;0.83;;
5931;SDS011;2991;49.368;8.528;2022-09-03T04:08:21;0.93;;;0.93;;
5931;SDS011;2991;49.368;8.528;2022-09-03T04:10:47;0.93;;;0.93;;
5931;SDS011;2991;49.368;8.528;2022-09-03T04:13:12;1.20;;;1.10;;
5931;SDS011;2991;49.368;8.528;2022-09-03T04:15:38;1.07;;;1.00;;
5931;SDS011;2991;49.368;8.528;2022-09-03T04:18:04;0.80;;;0.80;;
5931;SDS011;2991;49.368;8.528;2022-09-03T04:20:30;0.83;;;0.83;;
5931;SDS011;2991;49.368;8.528;2022-09-03T04:22:59;1.27;;;1.10;;
5931;SDS011;2991;49.368;8.528;2022-09-03T04:25:25;1.00;;;1.00;;
5931;SDS011;2991;49.368;8.528;2022-09-03T04:27:51;1.53;;;1.00;;
5931;SDS011;2991;49.368;8.528;2022-09-03T04:30:16;1.27;;;0.90;;
5931;SDS011;2991;49.368;8.528;2022-09-03T04:32:42;0.90;;;0.90;;
5931;SDS011;2991;49.368;8.528;2022-09-03T04:35:17;1.03;;;1.03;;
5931;SDS011;2991;49.368;8.528;2022-09-03T04:37:47;0.80;;;0.80;;
5931;SDS011;2991;49.368;8.528;2022-09-03T04:40:13;1.03;;;1.00;;
5931;SDS011;2991;49.368;8.528;2022-09-03T04:42:39;2.80;;;1.00;;
5931;SDS011;2991;49.368;8.528;2022-09-03T04:45:05;0.97;;;0.97;;
5931;SDS011;2991;49.368;8.528;2022-09-03T04:47:32;4.63;;;1.27;;
5931;SDS011;2991;49.368;8.528;2022-09-03T04:49:58;1.10;;;0.90;;
5931;SDS011;2991;49.368;8.528;2022-09-03T04:52:24;0.90;;;0.90;;
5931;SDS011;2991;49.368;8.528;2022-09-03T04:54:53;0.90;;;0.90;;
5931;SDS011;2991;49.368;8.528;2022-09-03T04:57:19;0.80;;;0.80;;
5931;SDS011;2991;49.368;8.528;2022-09-03T04:59:44;0.90;;;0.90;;
5931;SDS011;2991;49.368;8.528;2022-09-03T05:02:10;1.40;;;1.00;;
5931;SDS011;2991;49.368;8.528;2022-09-03T05:04:35;1.17;;;1.07;;
5931;SDS011;2991;49.368;8.528;2022-09-03T05:07:01;1.73;;;1.00;;
5931;SDS011;2991;49.368;8.528;2022-09-03T05:09:26;0.87;;;0.87;;
5931;SDS011;2991;49.368;8.528;2022-09-03T05:11:52;0.90;;;0.90;;
5931;SDS011;2991;49.368;8.528;2022-09-03T05:14:18;1.40;;;1.30;;
5931;SDS011;2991;49.368;8.528;2022-09-03T05:16:44;1.00;;;1.00;;
5931;SDS011;2991;49.368;8.528;2022-09-03T05:19:09;0.83;;;0.83;;
5931;SDS011;2991;49.368;8.528;2022-09-03T05:21:36;0.90;;;0.90;;
5931;SDS011;2991;49.368;8.528;2022-09-03T05:24:01;4.33;;;0.90;;
5931;SDS011;2991;49.368;8.528;2022-09-03T05:26:29;1.03;;;0.93;;
5931;SDS011;2991;49.368;8.528;2022-09-03T05:28:59;1.10;;;1.00;;
5931;SDS011;2991;49.368;8.528;2022-09-03T05:31:27;1.27;;;0.97;;
5931;SDS011;2991;49.368;8.528;2022-09-03T05:33:56;0.87;;;0.87;;
5931;SDS011;2991;49.368;8.528;2022-09-03T05:36:24;1.47;;;1.00;;
5931;SDS011;2991;49.368;8.528;2022-09-03T05:38:52;2.83;;;1.20;;
5931;SDS011;2991;49.368;8.528;2022-09-03T05:41:19;1.00;;;1.00;;
5931;SDS011;2991;49.368;8.528;2022-09-03T05:43:49;1.20;;;1.10;;
5931;SDS011;2991;49.368;8.528;2022-09-03T05:46:20;1.13;;;1.13;;
5931;SDS011;2991;49.368;8.528;2022-09-03T05:48:57;1.20;;;1.13;;
5931;SDS011;2991;49.368;8.528;2022-09-03T05:51:27;0.80;;;0.80;;
5931;SDS011;2991;49.368;8.528;2022-09-03T05:53:53;1.10;;;1.10;;
5931;SDS011;2991;49.368;8.528;2022-09-03T05:56:20;0.83;;;0.83;;
5931;SDS011;2991;49.368;8.528;2022-09-03T05:58:50;0.80;;;0.80;;
5931;SDS011;2991;49.368;8.528;2022-09-03T06:01:25;0.97;;;0.97;;
5931;SDS011;2991;49.368;8.528;2022-09-03T06:03:56;1.00;;;1.00;;
5931;SDS011;2991;49.368;8.528;2022-09-03T06:06:33;0.80;;;0.80;;
5931;SDS011;2991;49.368;8.528;2022-09-03T06:09:00;1.03;;;0.97;;
5931;SDS011;2991;49.368;8.528;2022-09-03T06:11:31;1.07;;;1.07;;
5931;SDS011;2991;49.368;8.528;2022-09-03T06:13:59;1.00;;;1.00;;
5931;SDS011;2991;49.368;8.528;2022-09-03T06:16:26;0.90;;;0.90;;
5931;SDS011;2991;49.368;8.528;2022-09-03T06:18:52;1.17;;;1.17;;
5931;SDS011;2991;49.368;8.528;2022-09-03T06:21:19;1.00;;;1.00;;
5931;SDS011;2991;49.368;8.528;2022-09-03T06:23:54;1.17;;;1.17;;
5931;SDS011;2991;49.368;8.528;2022-09-03T06:26:21;1.00;;;1.00;;
5931;SDS011;2991;49.368;8.528;2022-09-03T06:28:47;1.97;;;1.40;;
5931;SDS011;2991;49.368;8.528;2022-09-03T06:31:17;1.10;;;1.00;;
5931;SDS011;2991;49.368;8.528;2022-09-03T06:33:43;0.90;;;0.90;;
5931;SDS011;2991;49.368;8.528;2022-09-03T06:36:11;1.40;;;1.03;;
5931;SDS011;2991;49.368;8.528;2022-09-03T06:38:38;1.33;;;1.20;;
5931;SDS011;2991;49.368;8.528;2022-09-03T06:41:08;1.47;;;1.00;;
5931;SDS011;2991;49.368;8.528;2022-09-03T06:43:40;2.30;;;1.30;;
5931;SDS011;2991;49.368;8.528;2022-09-03T06:48:33;1.50;;;1.40;;
5931;SDS011;2991;49.368;8.528;2022-09-03T06:51:04;1.33;;;1.23;;
5931;SDS011;2991;49.368;8.528;2022-09-03T06:53:44;1.03;;;1.00;;
5931;SDS011;2991;49.368;8.528;2022-09-03T06:56:12;1.90;;;1.10;;
5931;SDS011;2991;49.368;8.528;2022-09-03T06:58:43;1.87;;;1.30;;
5931;SDS011;2991;49.368;8.528;2022-09-03T07:01:11;4.00;;;1.30;;
5931;SDS011;2991;49.368;8.528;2022-09-03T07:03:45;1.73;;;1.63;;
5931;SDS011;2991;49.368;8.528;2022-09-03T07:06:16;1.60;;;1.50;;
5931;SDS011;2991;49.368;8.528;2022-09-03T07:08:42;2.50;;;1.17;;
5931;SDS011;2991;49.368;8.528;2022-09-03T07:11:12;1.10;;;1.00;;
5931;SDS011;2991;49.368;8.528;2022-09-03T07:13:40;1.73;;;1.27;;
5931;SDS011;2991;49.368;8.528;2022-09-03T07:16:31;3.23;;;1.50;;
5931;SDS011;2991;49.368;8.528;2022-09-03T07:18:56;1.37;;;1.30;;
5931;SDS011;2991;49.368;8.528;2022-09-03T07:21:26;1.30;;;1.30;;
5931;SDS011;2991;49.368;8.528;2022-09-03T07:23:53;1.43;;;1.20;;
5931;SDS011;2991;49.368;8.528;2022-09-03T07:26:24;2.63;;;1.70;;
5931;SDS011;2991;49.368;8.528;2022-09-03T07:28:52;1.83;;;1.33;;
5931;SDS011;2991;49.368;8.528;2022-09-03T07:31:22;3.43;;;1.60;;
5931;SDS011;2991;49.368;8.528;2022-09-03T07:33:51;1.90;;;1.70;;
5931;SDS011;2991;49.368;8.528;2022-09-03T07:36:19;2.17;;;1.67;;
5931;SDS011;2991;49.368;8.528;2022-09-03T07:38:46;1.50;;;1.40;;
5931;SDS011;2991;49.368;8.528;2022-09-03T07:41:12;2.50;;;1.30;;
5931;SDS011;2991;49.368;8.528;2022-09-03T07:43:42;2.27;;;1.40;;
5931;SDS011;2991;49.368;8.528;2022-09-03T07:46:13;2.53;;;1.30;;
5931;SDS011;2991;49.368;8.528;2022-09-03T07:48:45;1.73;;;1.30;;
5931;SDS011;2991;49.368;8.528;2022-09-03T07:51:10;1.30;;;1.30;;
5931;SDS011;2991;49.368;8.528;2022-09-03T07:53:36;1.93;;;1.20;;
5931;SDS011;2991;49.368;8.528;2022-09-03T07:56:03;1.73;;;1.50;;
5931;SDS011;2991;49.368;8.528;2022-09-03T07:58:34;1.33;;;1.23;;
5931;SDS011;2991;49.368;8.528;2022-09-03T08:01:04;1.53;;;1.40;;
5931;SDS011;2991;49.368;8.528;2022-09-03T08:03:32;1.57;;;1.27;;
5931;SDS011;2991;49.368;8.528;2022-09-03T08:05:59;2.67;;;1.77;;
5931;SDS011;2991;49.368;8.528;2022-09-03T08:08:27;2.20;;;1.77;;
5931;SDS011;2991;49.368;8.528;2022-09-03T08:10:52;2.40;;;1.60;;
5931;SDS011;2991;49.368;8.528;2022-09-03T08:13:18;3.83;;;1.90;;
5931;SDS011;2991;49.368;8.528;2022-09-03T08:15:52;1.60;;;1.50;;
5931;SDS011;2991;49.368;8.528;2022-09-03T08:18:18;3.70;;;1.87;;
5931;SDS011;2991;49.368;8.528;2022-09-03T08:20:44;2.50;;;1.83;;
5931;SDS011;2991;49.368;8.528;2022-09-03T08:23:10;3.60;;;1.93;;
5931;SDS011;2991;49.368;8.528;2022-09-03T08:25:36;1.37;;;1.37;;
5931;SDS011;2991;49.368;8.528;2022-09-03T08:28:01;1.63;;;1.40;;
5931;SDS011;2991;49.368;8.528;2022-09-03T08:30:27;2.30;;;1.70;;
5931;SDS011;2991;49.368;8.528;2022-09-03T08:32:53;3.03;;;1.40;;
5931;SDS011;2991;49.368;8.528;2022-09-03T08:35:19;1.50;;;1.30;;
5931;SDS011;2991;49.368;8.528;2022-09-03T08:37:45;1.90;;;1.40;;
5931;SDS011;2991;49.368;8.528;2022-09-03T08:40:13;1.70;;;1.60;;
5931;SDS011;2991;49.368;8.528;2022-09-03T08:45:30;3.53;;;1.63;;
5931;SDS011;2991;49.368;8.528;2022-09-03T08:48:00;1.70;;;1.60;;
5931;SDS011;2991;49.368;8.528;2022-09-03T08:50:35;2.93;;;1.70;;
5931;SDS011;2991;49.368;8.528;2022-09-03T08:53:15;1.60;;;1.50;;
5931;SDS011;2991;49.368;8.528;2022-09-03T08:55:46;1.60;;;1.47;;
5931;SDS011;2991;49.368;8.528;2022-09-03T08:58:19;1.73;;;1.53;;
5931;SDS011;2991;49.368;8.528;2022-09-03T09:11:23;5.73;;;1.57;;
5931;SDS011;2991;49.368;8.528;2022-09-03T09:13:56;2.03;;;1.63;;
5931;SDS011;2991;49.368;8.528;2022-09-03T09:22:06;2.33;;;1.60;;
5931;SDS011;2991;49.368;8.528;2022-09-03T09:24:45;1.70;;;1.60;;
5931;SDS011;2991;49.368;8.528;2022-09-03T09:27:13;2.60;;;1.40;;
5931;SDS011;2991;49.368;8.528;2022-09-03T09:29:41;1.90;;;1.47;;
5931;SDS011;2991;49.368;8.528;2022-09-03T09:32:10;1.90;;;1.70;;
5931;SDS011;2991;49.368;8.528;2022-09-03T09:34:38;2.20;;;1.93;;
5931;SDS011;2991;49.368;8.528;2022-09-03T09:37:08;1.73;;;1.57;;
5931;SDS011;2991;49.368;8.528;2022-09-03T09:39:38;1.70;;;1.60;;
5931;SDS011;2991;49.368;8.528;2022-09-03T09:42:20;1.90;;;1.80;;
5931;SDS011;2991;49.368;8.528;2022-09-03T09:44:46;1.93;;;1.57;;
5931;SDS011;2991;49.368;8.528;2022-09-03T09:47:13;1.57;;;1.47;;
5931;SDS011;2991;49.368;8.528;2022-09-03T09:49:56;1.60;;;1.50;;
5931;SDS011;2991;49.368;8.528;2022-09-03T09:52:24;1.57;;;1.50;;
5931;SDS011;2991;49.368;8.528;2022-09-03T09:54:52;2.80;;;1.50;;
5931;SDS011;2991;49.368;8.528;2022-09-03T09:57:31;2.00;;;1.40;;
5931;SDS011;2991;49.368;8.528;2022-09-03T10:00:16;3.00;;;1.67;;
5931;SDS011;2991;49.368;8.528;2022-09-03T10:02:46;1.90;;;1.70;;
5931;SDS011;2991;49.368;8.528;2022-09-03T10:05:22;1.80;;;1.33;;
5931;SDS011;2991;49.368;8.528;2022-09-03T10:07:54;2.60;;;1.90;;
5931;SDS011;2991;49.368;8.528;2022-09-03T10:10:28;1.47;;;1.37;;
5931;SDS011;2991;49.368;8.528;2022-09-03T10:21:01;2.93;;;1.50;;
5931;SDS011;2991;49.368;8.528;2022-09-03T10:23:36;1.60;;;1.50;;
5931;SDS011;2991;49.368;8.528;2022-09-03T10:26:16;1.93;;;1.67;;
5931;SDS011;2991;49.368;8.528;2022-09-03T10:28:43;1.97;;;1.60;;
5931;SDS011;2991;49.368;8.528;2022-09-03T10:36:23;1.57;;;1.47;;
5931;SDS011;2991;49.368;8.528;2022-09-03T10:39:02;1.70;;;1.60;;
5931;SDS011;2991;49.368;8.528;2022-09-03T10:55:39;1.40;;;1.30;;
5931;SDS011;2991;49.368;8.528;2022-09-03T11:03:59;1.90;;;1.73;;
5931;SDS011;2991;49.368;8.528;2022-09-03T11:09:37;1.80;;;1.70;;
5931;SDS011;2991;49.368;8.528;2022-09-03T11:12:09;1.83;;;1.67;;
5931;SDS011;2991;49.368;8.528;2022-09-03T11:15:31;2.30;;;2.20;;
5931;SDS011;2991;49.368;8.528;2022-09-03T11:17:47;3.57;;;1.70;;
5931;SDS011;2991;49.368;8.528;2022-09-03T11:20:17;2.50;;;1.70;;
5931;SDS011;2991;49.368;8.528;2022-09-03T11:22:45;1.87;;;1.77;;
5931;SDS011;2991;49.368;8.528;2022-09-03T11:25:14;1.57;;;1.47;;
5931;SDS011;2991;49.368;8.528;2022-09-03T11:33:50;1.80;;;1.40;;
5931;SDS011;2991;49.368;8.528;2022-09-03T11:36:36;1.77;;;1.67;;
5931;SDS011;2991;49.368;8.528;2022-09-03T11:39:17;2.20;;;1.60;;
5931;SDS011;2991;49.368;8.528;2022-09-03T11:42:04;1.93;;;1.80;;
5931;SDS011;2991;49.368;8.528;2022-09-03T11:44:49;2.37;;;1.60;;
5931;SDS011;2991;49.368;8.528;2022-09-03T11:49:50;3.30;;;1.60;;
5931;SDS011;2991;49.368;8.528;2022-09-03T11:52:24;2.20;;;1.60;;
5931;SDS011;2991;49.368;8.528;2022-09-03T11:55:04;1.83;;;1.73;;
5931;SDS011;2991;49.368;8.528;2022-09-03T11:57:38;1.67;;;1.57;;
5931;SDS011;2991;49.368;8.528;2022-09-03T12:00:12;1.90;;;1.67;;
5931;SDS011;2991;49.368;8.528;2022-09-03T12:03:03;1.60;;;1.60;;
5931;SDS011;2991;49.368;8.528;2022-09-03T12:16:33;1.30;;;1.20;;
5931;SDS011;2991;49.368;8.528;2022-09-03T12:19:24;1.57;;;1.57;;
5931;SDS011;2991;49.368;8.528;2022-09-03T12:22:01;1.73;;;1.63;;
5931;SDS011;2991;49.368;8.528;2022-09-03T12:24:29;1.83;;;1.73;;
5931;SDS011;2991;49.368;8.528;2022-09-03T12:27:01;1.37;;;1.37;;
5931;SDS011;2991;49.368;8.528;2022-09-03T12:29:28;1.63;;;1.53;;
5931;SDS011;2991;49.368;8.528;2022-09-03T12:31:55;2.37;;;1.40;;
5931;SDS011;2991;49.368;8.528;2022-09-03T12:34:30;1.80;;;1.70;;
5931;SDS011;2991;49.368;8.528;2022-09-03T12:36:56;1.50;;;1.40;;
5931;SDS011;2991;49.368;8.528;2022-09-03T12:39:23;2.10;;;1.60;;
5931;SDS011;2991;49.368;8.528;2022-09-03T12:41:58;2.93;;;1.57;;
5931;SDS011;2991;49.368;8.528;2022-09-03T12:49:32;1.37;;;1.27;;
5931;SDS011;2991;49.368;8.528;2022-09-03T12:52:02;1.70;;;1.60;;
5931;SDS011;2991;49.368;8.528;2022-09-03T12:54:38;1.50;;;1.40;;
5931;SDS011;2991;49.368;8.528;2022-09-03T12:57:12;1.70;;;1.60;;
5931;SDS011;2991;49.368;8.528;2022-09-03T12:59:43;2.33;;;1.70;;
5931;SDS011;2991;49.368;8.528;2022-09-03T13:02:12;1.23;;;1.23;;
5931;SDS011;2991;49.368;8.528;2022-09-03T13:04:52;1.60;;;1.50;;
5931;SDS011;2991;49.368;8.528;2022-09-03T13:09:59;1.60;;;1.50;;
5931;SDS011;2991;49.368;8.528;2022-09-03T13:12:32;1.57;;;1.33;;
5931;SDS011;2991;49.368;8.528;2022-09-03T13:15:17;2.07;;;1.73;;
5931;SDS011;2991;49.368;8.528;2022-09-03T13:20:29;1.57;;;1.47;;
5931;SDS011;2991;49.368;8.528;2022-09-03T13:23:08;1.70;;;1.60;;
5931;SDS011;2991;49.368;8.528;2022-09-03T13:25:50;1.70;;;1.60;;
5931;SDS011;2991;49.368;8.528;2022-09-03T13:28:43;1.70;;;1.60;;
5931;SDS011;2991;49.368;8.528;2022-09-03T13:31:33;1.63;;;1.53;;
5931;SDS011;2991;49.368;8.528;2022-09-03T13:34:22;1.90;;;1.80;;
5931;SDS011;2991;49.368;8.528;2022-09-03T13:39:43;1.80;;;1.70;;
5931;SDS011;2991;49.368;8.528;2022-09-03T13:42:17;2.07;;;1.73;;
5931;SDS011;2991;49.368;8.528;2022-09-03T13:44:54;1.83;;;1.60;;
5931;SDS011;2991;49.368;8.528;2022-09-03T13:50:09;1.83;;;1.73;;
5931;SDS011;2991;49.368;8.528;2022-09-03T13:56:03;1.53;;;1.50;;
5931;SDS011;2991;49.368;8.528;2022-09-03T13:58:43;1.63;;;1.53;;
5931;SDS011;2991;49.368;8.528;2022-09-03T14:04:28;1.60;;;1.53;;
5931;SDS011;2991;49.368;8.528;2022-09-03T14:07:12;1.70;;;1.60;;
5931;SDS011;2991;49.368;8.528;2022-09-03T14:12:42;1.50;;;1.50;;
5931;SDS011;2991;49.368;8.528;2022-09-03T14:17:58;1.70;;;1.60;;
5931;SDS011;2991;49.368;8.528;2022-09-03T14:20:48;1.63;;;1.53;;
5931;SDS011;2991;49.368;8.528;2022-09-03T14:23:24;1.77;;;1.67;;
5931;SDS011;2991;49.368;8.528;2022-09-03T14:26:04;2.20;;;2.10;;
5931;SDS011;2991;49.368;8.528;2022-09-03T14:28:35;1.90;;;1.80;;
5931;SDS011;2991;49.368;8.528;2022-09-03T14:37:02;2.00;;;1.90;;
5931;SDS011;2991;49.368;8.528;2022-09-03T14:39:55;2.07;;;1.97;;
5931;SDS011;2991;49.368;8.528;2022-09-03T14:45:14;2.13;;;2.03;;
5931;SDS011;2991;49.368;8.528;2022-09-03T14:53:27;1.80;;;1.70;;
5931;SDS011;2991;49.368;8.528;2022-09-03T14:56:20;1.90;;;1.80;;
5931;SDS011;2991;49.368;8.528;2022-09-03T15:01:35;2.10;;;1.90;;
5931;SDS011;2991;49.368;8.528;2022-09-03T15:04:12;2.07;;;1.97;;
5931;SDS011;2991;49.368;8.528;2022-09-03T15:06:59;2.50;;;2.40;;
5931;SDS011;2991;49.368;8.528;2022-09-03T15:12:36;2.23;;;2.10;;
5931;SDS011;2991;49.368;8.528;2022-09-03T15:15:09;2.37;;;2.17;;
5931;SDS011;2991;49.368;8.528;2022-09-03T15:26:05;3.57;;;2.30;;
5931;SDS011;2991;49.368;8.528;2022-09-03T15:36:34;1.97;;;1.87;;
5931;SDS011;2991;49.368;8.528;2022-09-03T15:39:10;2.60;;;2.40;;
5931;SDS011;2991;49.368;8.528;2022-09-03T15:44:59;2.50;;;2.40;;
5931;SDS011;2991;49.368;8.528;2022-09-03T15:47:39;2.50;;;2.30;;
5931;SDS011;2991;49.368;8.528;2022-09-03T15:50:18;1.70;;;1.70;;
5931;SDS011;2991;49.368;8.528;2022-09-03T15:53:26;2.77;;;2.57;;
5931;SDS011;2991;49.368;8.528;2022-09-03T15:58:47;6.17;;;2.23;;
5931;SDS011;2991;49.368;8.528;2022-09-03T16:01:22;2.30;;;2.20;;
5931;SDS011;2991;49.368;8.528;2022-09-03T16:04:05;2.40;;;2.20;;
5931;SDS011;2991;49.368;8.528;2022-09-03T16:09:34;3.40;;;2.50;;
5931;SDS011;2991;49.368;8.528;2022-09-03T16:15:19;2.20;;;2.10;;
5931;SDS011;2991;49.368;8.528;2022-09-03T16:18:00;3.10;;;2.90;;
5931;SDS011;2991;49.368;8.528;2022-09-03T16:31:02;3.10;;;2.90;;
5931;SDS011;2991;49.368;8.528;2022-09-03T16:33:47;2.80;;;2.60;;
5931;SDS011;2991;49.368;8.528;2022-09-03T16:44:55;2.80;;;2.67;;
5931;SDS011;2991;49.368;8.528;2022-09-03T16:47:41;2.80;;;2.57;;
5931;SDS011;2991;49.368;8.528;2022-09-03T16:51:05;5.23;;;2.70;;
5931;SDS011;2991;49.368;8.528;2022-09-03T17:05:19;4.00;;;2.80;;
5931;SDS011;2991;49.368;8.528;2022-09-03T17:08:07;2.77;;;2.60;;
5931;SDS011;2991;49.368;8.528;2022-09-03T17:21:30;5.10;;;2.80;;
5931;SDS011;2991;49.368;8.528;2022-09-03T17:24:04;2.93;;;2.77;;
5931;SDS011;2991;49.368;8.528;2022-09-03T17:26:50;2.93;;;2.73;;
5931;SDS011;2991;49.368;8.528;2022-09-03T17:37:49;2.90;;;2.60;;
5931;SDS011;2991;49.368;8.528;2022-09-03T17:43:52;2.67;;;2.57;;
5931;SDS011;2991;49.368;8.528;2022-09-03T17:49:06;3.03;;;2.70;;
5931;SDS011;2991;49.368;8.528;2022-09-03T17:51:36;4.70;;;3.20;;
5931;SDS011;2991;49.368;8.528;2022-09-03T18:00:08;3.93;;;2.70;;
5931;SDS011;2991;49.368;8.528;2022-09-03T18:02:42;2.90;;;2.60;;
5931;SDS011;2991;49.368;8.528;2022-09-03T18:08:19;2.80;;;2.60;;
5931;SDS011;2991;49.368;8.528;2022-09-03T18:18:45;3.37;;;2.77;;
5931;SDS011;2991;49.368;8.528;2022-09-03T18:21:22;2.50;;;2.40;;
5931;SDS011;2991;49.368;8.528;2022-09-03T18:30:29;2.67;;;2.53;;
5931;SDS011;2991;49.368;8.528;2022-09-03T18:33:15;4.07;;;2.67;;
5931;SDS011;2991;49.368;8.528;2022-09-03T18:36:07;2.83;;;2.63;;
5931;SDS011;2991;49.368;8.528;2022-09-03T18:38:51;2.80;;;2.60;;
5931;SDS011;2991;49.368;8.528;2022-09-03T18:41:43;2.60;;;2.40;;
5931;SDS011;2991;49.368;8.528;2022-09-03T18:44:41;3.07;;;2.73;;
5931;SDS011;2991;49.368;8.528;2022-09-03T18:53:46;6.00;;;3.80;;
5931;SDS011;2991;49.368;8.528;2022-09-03T18:56:47;3.50;;;3.20;;
5931;SDS011;2991;49.368;8.528;2022-09-03T19:11:36;3.90;;;3.53;;
5931;SDS011;2991;49.368;8.528;2022-09-03T19:14:36;4.27;;;3.87;;
5931;SDS011;2991;49.368;8.528;2022-09-03T19:24:25;3.57;;;3.37;;
5931;SDS011;2991;49.368;8.528;2022-09-03T19:27:28;3.60;;;3.17;;
5931;SDS011;2991;49.368;8.528;2022-09-03T19:30:23;3.63;;;3.30;;
5931;SDS011;2991;49.368;8.528;2022-09-03T19:33:32;4.77;;;3.00;;
5931;SDS011;2991;49.368;8.528;2022-09-03T19:45:28;3.83;;;3.30;;
5931;SDS011;2991;49.368;8.528;2022-09-03T19:51:13;3.20;;;2.90;;
5931;SDS011;2991;49.368;8.528;2022-09-03T19:54:01;3.43;;;3.17;;
5931;SDS011;2991;49.368;8.528;2022-09-03T19:56:46;2.93;;;2.73;;
5931;SDS011;2991;49.368;8.528;2022-09-03T19:59:34;3.30;;;3.00;;
5931;SDS011;2991;49.368;8.528;2022-09-03T20:02:22;3.07;;;2.87;;
5931;SDS011;2991;49.368;8.528;2022-09-03T20:05:09;3.30;;;3.07;;
5931;SDS011;2991;49.368;8.528;2022-09-03T20:07:58;3.53;;;2.97;;
5931;SDS011;2991;49.368;8.528;2022-09-03T20:10:43;4.40;;;3.50;;
5931;SDS011;2991;49.368;8.528;2022-09-03T20:13:16;3.67;;;3.13;;
5931;SDS011;2991;49.368;8.528;2022-09-03T20:15:56;2.90;;;2.70;;
5931;SDS011;2991;49.368;8.528;2022-09-03T20:23:54;3.13;;;2.93;;
5931;SDS011;2991;49.368;8.528;2022-09-03T20:26:32;3.40;;;2.83;;
5931;SDS011;2991;49.368;8.528;2022-09-03T20:32:25;3.70;;;3.10;;
5931;SDS011;2991;49.368;8.528;2022-09-03T20:35:07;3.00;;;2.87;;
5931;SDS011;2991;49.368;8.528;2022-09-03T20:37:43;2.87;;;2.60;;
5931;SDS011;2991;49.368;8.528;2022-09-03T20:43:04;3.20;;;3.00;;
5931;SDS011;2991;49.368;8.528;2022-09-03T20:51:58;2.90;;;2.70;;
5931;SDS011;2991;49.368;8.528;2022-09-03T20:54:36;2.60;;;2.50;;
5931;SDS011;2991;49.368;8.528;2022-09-03T20:57:22;2.60;;;2.40;;
5931;SDS011;2991;49.368;8.528;2022-09-03T21:00:10;3.60;;;3.17;;
5931;SDS011;2991;49.368;8.528;2022-09-03T21:02:46;3.50;;;3.20;;
5931;SDS011;2991;49.368;8.528;2022-09-03T21:08:03;3.00;;;2.80;;
5931;SDS011;2991;49.368;8.528;2022-09-03T21:10:55;2.83;;;2.63;;
5931;SDS011;2991;49.368;8.528;2022-09-03T21:13:26;2.77;;;2.57;;
5931;SDS011;2991;49.368;8.528;2022-09-03T21:25:03;3.93;;;3.00;;
5931;SDS011;2991;49.368;8.528;2022-09-03T21:27:32;2.80;;;2.60;;
5931;SDS011;2991;49.368;8.528;2022-09-03T21:30:10;2.60;;;2.40;;
5931;SDS011;2991;49.368;8.528;2022-09-03T21:35:25;2.87;;;2.67;;
5931;SDS011;2991;49.368;8.528;2022-09-03T21:37:57;3.70;;;3.17;;
5931;SDS011;2991;49.368;8.528;2022-09-03T21:40:28;2.80;;;2.70;;
5931;SDS011;2991;49.368;8.528;2022-09-03T21:43:10;2.33;;;2.23;;
5931;SDS011;2991;49.368;8.528;2022-09-03T21:48:28;3.03;;;2.83;;